Time;durP1;ratioP1;P1;durP2;ratioP2;P2;SDS_P1;SDS_P2;PMS_P1;PMS_P2;Temp;Humidity;BMP_temperature;BMP_pressure;BME280_temperature;BME280_humidity;BME280_pressure;Samples;Min_cycle;Max_cycle;Signal;HPM_P1;HPM_P2
2022/12/04 00:00:48;;;;;;;50.30;34.28;;;3.40;99.90;;;;;;2077326;28;20032;-73
2022/12/04 00:01:49;;;;;;;51.60;35.63;;;3.40;99.90;;;;;;2076945;28;20405;-73
2022/12/04 00:02:49;;;;;;;54.85;36.47;;;3.40;99.90;;;;;;2074581;28;20037;-73
2022/12/04 00:03:55;;;;;;;51.08;35.75;;;3.40;99.90;;;;;;2073604;28;20634;-73
2022/12/04 00:04:56;;;;;;;52.67;35.47;;;3.40;99.90;;;;;;2077570;28;20025;-73
2022/12/04 00:06:09;;;;;;;52.20;35.33;;;3.30;99.90;;;;;;2077238;28;20023;-73
2022/12/04 00:07:09;;;;;;;49.05;34.58;;;3.30;99.90;;;;;;2077968;28;20025;-73
2022/12/04 00:08:10;;;;;;;53.80;35.97;;;3.30;99.90;;;;;;2077799;28;20026;-73
2022/12/04 00:09:11;;;;;;;52.95;35.05;;;3.30;99.90;;;;;;2077410;28;20144;-73
2022/12/04 00:10:11;;;;;;;52.53;34.53;;;3.30;99.90;;;;;;2077965;28;20537;-73
2022/12/04 00:11:14;;;;;;;53.35;35.38;;;3.30;99.90;;;;;;2075792;28;20186;-73
2022/12/04 00:12:14;;;;;;;47.40;34.03;;;3.30;99.90;;;;;;2083759;28;20022;-73
2022/12/04 00:13:15;;;;;;;52.33;35.25;;;3.30;99.90;;;;;;2086396;28;20528;-73
2022/12/04 00:14:15;;;;;;;55.20;35.97;;;3.30;99.90;;;;;;2076447;28;20033;-73
2022/12/04 00:15:16;;;;;;;50.35;34.25;;;3.30;99.90;;;;;;2076775;28;20544;-76
2022/12/04 00:16:19;;;;;;;51.58;36.38;;;3.30;99.90;;;;;;2075618;28;20116;-74
2022/12/04 00:17:20;;;;;;;51.05;34.78;;;3.30;99.90;;;;;;2068062;28;20018;-73
2022/12/04 00:18:21;;;;;;;51.83;34.97;;;3.30;99.90;;;;;;2075426;28;20021;-73
2022/12/04 00:19:21;;;;;;;52.13;35.33;;;3.30;99.90;;;;;;2077258;28;20029;-73
2022/12/04 00:20:22;;;;;;;53.35;36.10;;;3.30;99.90;;;;;;2078170;28;20637;-73
2022/12/04 00:21:24;;;;;;;46.15;32.75;;;3.30;99.90;;;;;;2084676;28;20029;-73
2022/12/04 00:22:25;;;;;;;51.53;36.00;;;3.30;99.90;;;;;;2083678;28;20080;-73
2022/12/04 00:23:25;;;;;;;51.88;34.42;;;3.30;99.90;;;;;;2085413;28;20536;-73
2022/12/04 00:24:26;;;;;;;52.40;32.63;;;3.30;99.90;;;;;;2084441;28;20070;-73
2022/12/04 00:25:29;;;;;;;48.40;33.40;;;3.30;99.90;;;;;;2083847;28;20416;-73
2022/12/04 00:26:30;;;;;;;48.80;33.85;;;3.40;99.90;;;;;;2083958;28;20025;-73
2022/12/04 00:27:30;;;;;;;47.25;33.28;;;3.40;99.90;;;;;;2078204;28;20025;-73
2022/12/04 00:28:31;;;;;;;48.72;33.90;;;3.30;99.90;;;;;;2076919;28;20171;-74
2022/12/04 00:29:32;;;;;;;52.60;34.67;;;3.30;99.90;;;;;;2078303;28;20069;-73
2022/12/04 00:30:32;;;;;;;51.33;33.95;;;3.30;99.90;;;;;;2078046;28;20022;-73
2022/12/04 00:31:33;;;;;;;52.38;35.22;;;3.40;99.90;;;;;;2076094;28;20034;-73
2022/12/04 00:32:34;;;;;;;51.25;34.53;;;3.40;99.90;;;;;;2076467;28;20032;-73
2022/12/04 00:33:34;;;;;;;49.30;34.30;;;3.40;99.90;;;;;;2076510;28;20034;-73
2022/12/04 00:34:35;;;;;;;48.05;34.97;;;3.30;99.90;;;;;;2075418;28;20037;-73
2022/12/04 00:35:35;;;;;;;49.53;34.85;;;3.30;99.90;;;;;;2076161;28;20381;-73
2022/12/04 00:36:36;;;;;;;48.42;34.25;;;3.40;99.90;;;;;;2077108;28;20045;-73
2022/12/04 00:37:37;;;;;;;50.05;33.60;;;3.40;99.90;;;;;;2076957;28;20616;-73
2022/12/04 00:38:39;;;;;;;49.05;34.25;;;3.30;99.90;;;;;;2075418;28;20359;-73
2022/12/04 00:39:39;;;;;;;50.70;34.58;;;3.40;99.90;;;;;;2077847;28;20031;-74
2022/12/04 00:40:48;;;;;;;49.05;33.92;;;3.40;99.90;;;;;;2075325;28;20489;-73
2022/12/04 00:41:49;;;;;;;50.22;33.72;;;3.40;99.90;;;;;;2074374;28;20026;-73
2022/12/04 00:42:49;;;;;;;47.42;33.13;;;3.40;99.90;;;;;;2074823;28;20095;-73
2022/12/04 00:43:51;;;;;;;51.75;34.00;;;3.40;99.90;;;;;;2074564;28;20029;-73
2022/12/04 00:44:51;;;;;;;46.28;32.35;;;3.40;99.90;;;;;;2076502;28;20029;-73
2022/12/04 00:45:52;;;;;;;48.83;34.15;;;3.40;99.90;;;;;;2076785;28;20025;-73
2022/12/04 00:46:52;;;;;;;47.63;33.95;;;3.40;99.90;;;;;;2077215;28;20523;-73
2022/12/04 00:47:53;;;;;;;47.40;32.95;;;3.40;99.90;;;;;;2075225;28;20386;-73
2022/12/04 00:48:53;;;;;;;48.60;32.00;;;3.40;99.90;;;;;;2076521;28;20021;-73
2022/12/04 00:49:54;;;;;;;51.85;33.65;;;3.40;99.90;;;;;;2076182;28;20075;-73
2022/12/04 00:50:54;;;;;;;55.03;33.95;;;3.40;99.90;;;;;;2076384;28;20432;-73
2022/12/04 00:51:55;;;;;;;51.13;33.55;;;3.40;99.90;;;;;;2076600;28;20029;-73
2022/12/04 00:52:56;;;;;;;47.97;32.88;;;3.40;99.90;;;;;;2076051;28;20802;-73
2022/12/04 00:53:57;;;;;;;46.90;32.70;;;3.40;99.90;;;;;;2077245;28;20397;-73
2022/12/04 00:54:57;;;;;;;44.35;31.52;;;3.40;99.90;;;;;;2075951;28;20112;-73
2022/12/04 00:56:01;;;;;;;48.70;33.78;;;3.40;99.90;;;;;;2076806;28;20022;-73
2022/12/04 00:57:02;;;;;;;47.72;32.20;;;3.40;99.90;;;;;;2076439;28;20036;-73
2022/12/04 00:58:03;;;;;;;47.40;32.65;;;3.40;99.90;;;;;;2077589;28;20101;-73
2022/12/04 00:59:04;;;;;;;46.42;32.38;;;3.40;99.90;;;;;;2076457;28;20076;-73
2022/12/04 01:00:06;;;;;;;47.55;34.03;;;3.40;99.90;;;;;;2077828;28;20076;-73
2022/12/04 01:01:12;;;;;;;45.03;32.30;;;3.40;99.90;;;;;;2077209;28;20029;-73
2022/12/04 01:02:12;;;;;;;47.08;33.03;;;3.40;99.90;;;;;;2076844;28;20034;-73
2022/12/04 01:03:13;;;;;;;44.33;32.25;;;3.40;99.90;;;;;;2074129;28;20105;-73
2022/12/04 01:04:13;;;;;;;50.50;33.35;;;3.40;99.90;;;;;;2075999;28;20721;-73
2022/12/04 01:05:14;;;;;;;46.25;31.67;;;3.40;99.90;;;;;;2083565;28;20113;-74
2022/12/04 01:06:29;;;;;;;44.97;31.63;;;3.40;99.90;;;;;;2083212;28;20123;-73
2022/12/04 01:07:30;;;;;;;47.25;32.17;;;3.40;99.90;;;;;;2077959;28;20033;-73
2022/12/04 01:08:31;;;;;;;45.13;31.67;;;3.40;99.90;;;;;;2076607;28;20152;-73
2022/12/04 01:09:32;;;;;;;46.17;32.38;;;3.40;99.90;;;;;;2076079;28;20021;-73
2022/12/04 01:10:32;;;;;;;44.47;31.60;;;3.30;99.90;;;;;;2077495;28;20031;-73
2022/12/04 01:11:33;;;;;;;45.45;32.25;;;3.30;99.90;;;;;;2074995;28;20021;-73
2022/12/04 01:12:33;;;;;;;48.65;33.42;;;3.40;99.90;;;;;;2075942;28;20029;-73
2022/12/04 01:13:34;;;;;;;45.45;31.60;;;3.40;99.90;;;;;;2077216;28;20026;-73
2022/12/04 01:14:34;;;;;;;45.40;32.55;;;3.40;99.90;;;;;;2074939;28;20072;-73
2022/12/04 01:15:39;;;;;;;49.28;33.65;;;3.40;99.90;;;;;;2077062;28;20037;-73
2022/12/04 01:16:39;;;;;;;42.58;30.77;;;3.40;99.90;;;;;;2076579;28;20032;-73
2022/12/04 01:17:40;;;;;;;48.28;33.10;;;3.30;99.90;;;;;;2077109;28;20032;-73
2022/12/04 01:18:41;;;;;;;44.83;31.65;;;3.40;99.90;;;;;;2069435;28;20030;-73
2022/12/04 01:19:41;;;;;;;45.15;31.77;;;3.40;99.90;;;;;;2077338;28;20025;-73
2022/12/04 01:20:49;;;;;;;44.75;31.42;;;3.40;99.90;;;;;;2074900;28;20025;-73
2022/12/04 01:21:50;;;;;;;44.92;31.90;;;3.40;99.90;;;;;;2077016;28;20149;-73
2022/12/04 01:22:50;;;;;;;46.72;32.05;;;3.40;99.90;;;;;;2082618;28;20040;-73
2022/12/04 01:23:51;;;;;;;48.33;32.63;;;3.40;99.90;;;;;;2076500;28;20025;-73
2022/12/04 01:24:55;;;;;;;44.17;31.98;;;3.40;99.90;;;;;;2077177;28;20027;-73
2022/12/04 01:25:57;;;;;;;46.53;31.65;;;3.40;99.90;;;;;;2076839;28;20028;-73
2022/12/04 01:26:58;;;;;;;46.00;32.17;;;3.40;99.90;;;;;;2076398;28;20029;-73
2022/12/04 01:27:58;;;;;;;44.42;31.02;;;3.40;99.90;;;;;;2074682;28;20559;-73
2022/12/04 01:28:59;;;;;;;45.47;32.40;;;3.40;99.90;;;;;;2078215;28;20116;-73
2022/12/04 01:29:59;;;;;;;50.65;33.30;;;3.40;99.90;;;;;;2075280;28;20572;-73
2022/12/04 01:31:07;;;;;;;44.40;31.95;;;3.40;99.90;;;;;;2075429;28;20045;-73
2022/12/04 01:32:07;;;;;;;45.22;33.10;;;3.40;99.90;;;;;;2075977;28;20026;-73
2022/12/04 01:33:08;;;;;;;47.53;32.33;;;3.40;99.90;;;;;;2074975;28;20120;-73
2022/12/04 01:34:11;;;;;;;46.63;33.20;;;3.40;99.90;;;;;;2076274;28;20029;-73
2022/12/04 01:35:12;;;;;;;46.85;32.97;;;3.40;99.90;;;;;;2075340;28;20028;-73
2022/12/04 01:36:17;;;;;;;45.05;32.38;;;3.40;99.90;;;;;;2076659;28;20552;-73
2022/12/04 01:37:17;;;;;;;47.65;32.47;;;3.40;99.90;;;;;;2076523;28;20014;-73
2022/12/04 01:38:18;;;;;;;46.35;32.05;;;3.40;99.90;;;;;;2076497;28;20477;-73
2022/12/04 01:39:18;;;;;;;47.63;31.83;;;3.40;99.90;;;;;;2075868;28;20036;-73
2022/12/04 01:40:19;;;;;;;45.85;31.85;;;3.40;99.90;;;;;;2084211;28;20482;-73
2022/12/04 01:41:24;;;;;;;46.65;31.90;;;3.40;99.90;;;;;;2081455;28;20060;-73
2022/12/04 01:42:25;;;;;;;45.35;32.22;;;3.40;99.90;;;;;;2083847;28;20036;-73
2022/12/04 01:43:28;;;;;;;45.00;31.45;;;3.40;99.90;;;;;;2075527;28;20035;-73
2022/12/04 01:44:29;;;;;;;43.47;30.48;;;3.40;99.90;;;;;;2077012;28;20029;-73
2022/12/04 01:45:30;;;;;;;46.33;31.20;;;3.40;99.90;;;;;;2074775;28;20038;-73
2022/12/04 01:46:30;;;;;;;45.20;31.20;;;3.40;99.90;;;;;;2075853;28;20029;-74
2022/12/04 01:47:31;;;;;;;46.45;34.08;;;3.40;99.90;;;;;;2076389;28;20044;-73
2022/12/04 01:48:43;;;;;;;47.65;32.90;;;3.40;99.90;;;;;;2077124;28;20025;-73
2022/12/04 01:49:47;;;;;;;45.55;30.48;;;3.40;99.90;;;;;;2077178;28;20025;-73
2022/12/04 01:50:52;;;;;;;42.80;30.17;;;3.40;99.90;;;;;;2083465;28;20471;-73
2022/12/04 01:52:05;;;;;;;44.38;31.50;;;3.40;99.90;;;;;;2083832;28;20033;-73
2022/12/04 01:53:06;;;;;;;48.28;32.05;;;3.40;99.90;;;;;;2073663;28;20025;-73
2022/12/04 01:54:27;;;;;;;46.95;32.72;;;3.40;99.90;;;;;;2075694;28;20079;-73
2022/12/04 01:55:29;;;;;;;44.13;32.08;;;3.40;99.90;;;;;;2075051;28;20100;-73
2022/12/04 01:56:35;;;;;;;44.65;32.00;;;3.40;99.90;;;;;;2076262;28;20060;-73
2022/12/04 01:57:37;;;;;;;45.60;32.78;;;3.40;99.90;;;;;;2076488;28;20048;-73
2022/12/04 01:58:43;;;;;;;44.28;32.65;;;3.40;99.90;;;;;;2076524;28;20033;-73
2022/12/04 01:59:56;;;;;;;46.13;31.90;;;3.40;99.90;;;;;;2075988;28;20036;-73
2022/12/04 02:01:01;;;;;;;44.95;32.15;;;3.40;99.90;;;;;;2076222;28;20037;-73
2022/12/04 02:02:08;;;;;;;45.15;31.27;;;3.40;99.90;;;;;;2074531;28;20021;-73
2022/12/04 02:03:09;;;;;;;45.22;32.60;;;3.40;99.90;;;;;;2075296;28;20632;-73
2022/12/04 02:04:10;;;;;;;45.42;32.40;;;3.40;99.90;;;;;;2075755;28;20025;-73
2022/12/04 02:05:13;;;;;;;46.15;31.02;;;3.40;99.90;;;;;;2082226;28;20107;-73
2022/12/04 02:06:14;;;;;;;41.90;30.02;;;3.40;99.90;;;;;;2076131;28;20025;-73
2022/12/04 02:07:14;;;;;;;44.63;31.98;;;3.40;99.90;;;;;;2082301;28;20052;-73
2022/12/04 02:08:15;;;;;;;46.30;32.78;;;3.40;99.90;;;;;;2082949;28;20055;-73
2022/12/04 02:09:16;;;;;;;45.85;31.92;;;3.40;99.90;;;;;;2076992;28;20718;-73
2022/12/04 02:10:23;;;;;;;47.90;33.08;;;3.40;99.90;;;;;;2075842;28;20132;-73
2022/12/04 02:11:44;;;;;;;47.67;33.42;;;3.40;99.90;;;;;;2074792;28;20084;-73
2022/12/04 02:13:13;;;;;;;47.35;32.15;;;3.40;99.90;;;;;;2075354;28;20052;-73
2022/12/04 02:14:14;;;;;;;46.38;31.55;;;3.30;99.90;;;;;;2075927;28;20025;-73
2022/12/04 02:16:02;;;;;;;43.92;31.73;;;3.30;99.90;;;;;;2075024;28;20025;-73
2022/12/04 02:17:17;;;;;;;43.58;31.92;;;3.30;99.90;;;;;;2073764;28;20116;-73
2022/12/04 02:18:53;;;;;;;43.22;31.80;;;3.30;99.90;;;;;;2074210;28;20083;-73
2022/12/04 02:20:15;;;;;;;44.13;30.58;;;3.30;99.90;;;;;;2075681;28;20059;-73
2022/12/04 02:21:39;;;;;;;47.58;32.25;;;3.40;99.90;;;;;;2077225;28;20017;-73
2022/12/04 02:23:00;;;;;;;50.97;34.50;;;3.30;99.90;;;;;;2075575;28;20028;-73
2022/12/04 02:24:41;;;;;;;44.08;32.28;;;3.30;99.90;;;;;;2077212;28;20418;-73
2022/12/04 02:26:00;;;;;;;;;;;3.30;99.90;;;;;;2075012;28;20665;-73
2022/12/04 02:27:11;;;;;;;42.78;31.17;;;3.20;99.90;;;;;;2076087;28;20293;-73
2022/12/04 02:28:39;;;;;;;44.35;30.42;;;3.20;99.90;;;;;;2077090;28;20025;-73
2022/12/04 02:29:53;;;;;;;42.03;30.13;;;3.20;99.90;;;;;;2076995;28;20075;-73
2022/12/04 02:30:58;;;;;;;43.92;31.35;;;3.30;99.90;;;;;;2074961;28;20026;-74
2022/12/04 02:32:18;;;;;;;44.17;31.73;;;3.30;99.90;;;;;;2075713;28;20080;-73
2022/12/04 02:33:23;;;;;;;38.63;29.48;;;3.30;99.90;;;;;;2076345;28;20338;-73
2022/12/04 02:34:46;;;;;;;41.70;30.77;;;3.30;99.90;;;;;;2075844;28;20087;-73
2022/12/04 02:36:12;;;;;;;44.30;29.83;;;3.30;99.90;;;;;;2077401;28;20041;-73
2022/12/04 02:37:44;;;;;;;39.80;29.42;;;3.30;99.90;;;;;;2077399;28;20026;-73
2022/12/04 02:38:56;;;;;;;43.20;30.45;;;3.30;99.90;;;;;;2074445;28;20034;-73
2022/12/04 02:40:29;;;;;;;40.78;29.20;;;3.30;99.90;;;;;;2076683;28;20017;-74
2022/12/04 02:41:45;;;;;;;42.05;29.38;;;3.30;99.90;;;;;;2065206;28;20747;-73
2022/12/04 02:43:10;;;;;;;42.08;30.25;;;3.30;99.90;;;;;;2075846;28;20692;-73
2022/12/04 02:44:21;;;;;;;42.08;30.02;;;3.30;99.90;;;;;;2077732;28;20117;-73
2022/12/04 02:45:30;;;;;;;40.03;29.90;;;3.30;99.90;;;;;;2076643;28;20928;-73
2022/12/04 02:46:37;;;;;;;41.75;29.75;;;3.30;99.90;;;;;;2073877;28;20095;-73
2022/12/04 02:47:40;;;;;;;41.08;29.92;;;3.20;99.90;;;;;;2076914;28;20091;-73
2022/12/04 02:48:45;;;;;;;43.22;29.98;;;3.30;99.90;;;;;;2075708;28;20428;-73
2022/12/04 02:49:51;;;;;;;42.17;30.75;;;3.20;99.90;;;;;;2075786;28;20036;-73
2022/12/04 02:50:55;;;;;;;42.63;30.00;;;3.30;99.90;;;;;;2074708;28;20036;-73
2022/12/04 02:51:58;;;;;;;43.03;31.65;;;3.20;99.90;;;;;;2076198;28;20492;-73
2022/12/04 02:53:11;;;;;;;40.25;28.83;;;3.20;99.90;;;;;;2074470;28;20045;-73
2022/12/04 02:54:28;;;;;;;41.65;30.20;;;3.30;99.90;;;;;;2067667;28;20034;-73
2022/12/04 02:55:53;;;;;;;43.35;30.15;;;3.30;99.90;;;;;;2076497;28;20032;-73
2022/12/04 02:56:55;;;;;;;43.05;29.83;;;3.20;99.90;;;;;;2076557;28;20035;-74
2022/12/04 02:58:03;;;;;;;40.40;28.55;;;3.20;99.90;;;;;;2073190;28;20056;-74
2022/12/04 02:59:11;;;;;;;38.85;28.90;;;3.20;99.90;;;;;;2075350;28;20022;-73
2022/12/04 03:00:12;;;;;;;40.42;27.92;;;3.20;99.90;;;;;;2074381;28;20120;-73
2022/12/04 03:01:19;;;;;;;41.70;28.88;;;3.20;99.90;;;;;;2074480;28;20026;-73
2022/12/04 03:02:36;;;;;;;38.97;27.98;;;3.20;99.90;;;;;;2077064;28;20028;-73
2022/12/04 03:03:37;;;;;;;40.45;28.75;;;3.20;99.90;;;;;;2075543;28;20473;-73
2022/12/04 03:04:39;;;;;;;38.22;27.80;;;3.20;99.90;;;;;;2075539;28;20619;-73
2022/12/04 03:05:43;;;;;;;39.60;27.77;;;3.20;99.90;;;;;;2073802;28;20030;-73
2022/12/04 03:06:49;;;;;;;43.75;28.50;;;3.20;99.90;;;;;;2074516;28;20022;-73
2022/12/04 03:08:00;;;;;;;44.83;29.48;;;3.20;99.90;;;;;;2074925;28;20061;-73
2022/12/04 03:09:13;;;;;;;39.42;28.83;;;3.20;99.90;;;;;;2083569;28;20037;-73
2022/12/04 03:10:19;;;;;;;41.63;28.88;;;3.20;99.90;;;;;;2074680;28;20182;-73
2022/12/04 03:11:20;;;;;;;37.40;27.50;;;3.20;99.90;;;;;;2077498;28;20145;-73
2022/12/04 03:12:25;;;;;;;38.10;28.50;;;3.20;99.90;;;;;;2075724;28;20041;-73
2022/12/04 03:13:44;;;;;;;40.15;29.05;;;3.20;99.90;;;;;;2075137;28;20041;-73
2022/12/04 03:15:13;;;;;;;36.78;27.58;;;3.20;99.90;;;;;;2074532;28;20127;-73
2022/12/04 03:16:27;;;;;;;40.10;28.35;;;3.20;99.90;;;;;;2077293;28;20025;-73
2022/12/04 03:17:59;;;;;;;37.63;26.60;;;3.20;99.90;;;;;;2074925;28;20048;-73
2022/12/04 03:19:22;;;;;;;36.28;26.55;;;3.20;99.90;;;;;;2071144;28;20740;-73
2022/12/04 03:20:24;;;;;;;38.40;26.70;;;3.20;99.90;;;;;;2075581;28;20695;-73
2022/12/04 03:21:28;;;;;;;37.05;27.15;;;3.20;99.90;;;;;;2076515;28;20032;-73
2022/12/04 03:22:32;;;;;;;36.17;25.83;;;3.20;99.90;;;;;;2074026;28;20044;-74
2022/12/04 03:24:10;;;;;;;38.90;27.77;;;3.20;99.90;;;;;;2075012;28;20017;-73
2022/12/04 03:25:10;;;;;;;36.40;25.77;;;3.20;99.90;;;;;;2069185;28;20745;-73
2022/12/04 03:26:21;;;;;;;38.13;27.25;;;3.20;99.90;;;;;;2075874;28;20475;-73
2022/12/04 03:27:44;;;;;;;35.88;25.73;;;3.20;99.90;;;;;;2077055;28;20022;-73
2022/12/04 03:29:22;;;;;;;35.15;26.00;;;3.20;99.90;;;;;;2076254;28;20028;-73
2022/12/04 03:30:23;;;;;;;36.05;24.60;;;3.20;99.90;;;;;;2076082;28;20021;-73
2022/12/04 03:31:41;;;;;;;33.63;24.98;;;3.20;99.90;;;;;;2075561;28;20028;-73
2022/12/04 03:32:50;;;;;;;35.22;25.08;;;3.20;99.90;;;;;;2075815;28;20021;-73
2022/12/04 03:33:55;;;;;;;35.78;26.38;;;3.20;99.90;;;;;;2074182;28;20041;-73
2022/12/04 03:34:59;;;;;;;36.40;25.45;;;3.20;99.90;;;;;;2076367;28;20037;-74
2022/12/04 03:36:17;;;;;;;36.05;24.98;;;3.20;99.90;;;;;;2076485;28;20136;-73
2022/12/04 03:37:25;;;;;;;37.83;26.40;;;3.30;99.90;;;;;;2077802;28;20030;-73
2022/12/04 03:38:40;;;;;;;34.03;25.10;;;3.20;99.90;;;;;;2077185;28;20723;-73
2022/12/04 03:39:48;;;;;;;34.75;25.67;;;3.30;99.90;;;;;;2078550;28;20183;-73
2022/12/04 03:41:02;;;;;;;34.95;24.42;;;3.30;99.90;;;;;;2076354;28;20032;-73
2022/12/04 03:42:12;;;;;;;35.33;24.92;;;3.30;99.90;;;;;;2076921;28;20105;-74
2022/12/04 03:43:22;;;;;;;;;;;3.30;99.90;;;;;;2077050;28;20034;-73
2022/12/04 03:44:38;;;;;;;31.55;23.50;;;3.20;99.90;;;;;;2076164;28;20437;-73
2022/12/04 03:45:42;;;;;;;34.15;24.23;;;3.30;99.90;;;;;;2077197;28;20506;-73
2022/12/04 03:47:01;;;;;;;32.35;24.63;;;3.30;99.90;;;;;;2076264;28;20052;-73
2022/12/04 03:48:10;;;;;;;31.85;24.00;;;3.30;99.90;;;;;;2077511;28;20092;-73
2022/12/04 03:49:22;;;;;;;33.38;24.48;;;3.30;99.90;;;;;;2077065;28;20512;-73
2022/12/04 03:50:54;;;;;;;31.20;23.45;;;3.30;99.90;;;;;;2074899;28;20466;-73
2022/12/04 03:52:08;;;;;;;32.63;23.85;;;3.30;99.90;;;;;;2081244;28;20044;-73
2022/12/04 03:53:35;;;;;;;30.42;23.42;;;3.30;99.90;;;;;;2083839;28;20149;-73
2022/12/04 03:54:43;;;;;;;35.90;24.80;;;3.30;99.90;;;;;;2077106;28;20509;-73
2022/12/04 03:56:02;;;;;;;31.33;22.65;;;3.30;99.90;;;;;;2077614;28;20036;-73
2022/12/04 03:57:28;;;;;;;30.75;23.67;;;3.30;99.90;;;;;;2077502;28;20030;-73
2022/12/04 03:58:32;;;;;;;32.45;23.58;;;3.30;99.90;;;;;;2073694;28;20535;-73
2022/12/04 04:00:07;;;;;;;31.70;23.48;;;3.30;99.90;;;;;;2072173;28;20100;-73
2022/12/04 04:01:11;;;;;;;33.95;23.23;;;3.30;99.90;;;;;;2077628;28;20038;-73
2022/12/04 04:02:15;;;;;;;33.05;23.73;;;3.30;99.90;;;;;;2076851;28;20404;-73
2022/12/04 04:03:23;;;;;;;29.50;22.83;;;3.30;99.90;;;;;;2076997;28;20044;-73
2022/12/04 04:04:34;;;;;;;32.97;23.08;;;3.30;99.90;;;;;;2075618;28;20056;-73
2022/12/04 04:05:37;;;;;;;31.20;23.55;;;3.30;99.90;;;;;;2078884;28;20503;-73
2022/12/04 04:06:42;;;;;;;34.50;23.08;;;3.30;99.90;;;;;;2077866;28;20038;-73
2022/12/04 04:08:23;;;;;;;30.55;21.92;;;3.30;99.90;;;;;;2076692;28;20014;-73
2022/12/04 04:09:21;;;;;;;30.20;22.38;;;3.30;99.90;;;;;;2075034;28;20037;-73
2022/12/04 04:10:25;;;;;;;31.48;23.50;;;3.30;99.90;;;;;;2076974;28;20068;-73
2022/12/04 04:11:42;;;;;;;31.15;23.52;;;3.30;99.90;;;;;;2077282;28;20022;-73
2022/12/04 04:24:35;;;;;;;31.45;23.80;;;3.30;99.90;;;;;;2076906;28;20697;-73
2022/12/04 04:25:40;;;;;;;31.65;23.70;;;3.30;99.90;;;;;;2076552;28;20029;-73
2022/12/04 04:26:46;;;;;;;32.95;23.65;;;3.30;99.90;;;;;;2076901;28;20461;-73
2022/12/04 04:27:57;;;;;;;30.05;22.20;;;3.30;99.90;;;;;;2075597;28;20856;-73
2022/12/04 04:28:57;;;;;;;33.75;23.48;;;3.30;99.90;;;;;;2076542;28;20028;-73
2022/12/04 04:29:58;;;;;;;33.05;23.92;;;3.30;99.90;;;;;;2077170;28;20030;-73
2022/12/04 04:31:31;;;;;;;32.85;22.90;;;3.30;99.90;;;;;;2076016;28;20623;-73
2022/12/04 04:32:46;;;;;;;31.85;23.45;;;3.30;99.90;;;;;;2074158;28;20025;-73
2022/12/04 04:34:00;;;;;;;34.78;25.15;;;3.30;99.90;;;;;;2076904;28;20028;-73
2022/12/04 04:35:25;;;;;;;34.75;24.85;;;3.30;99.90;;;;;;2073886;28;20026;-73
2022/12/04 04:36:43;;;;;;;35.30;24.02;;;3.30;99.90;;;;;;2077116;28;20022;-73
2022/12/04 04:38:04;;;;;;;32.58;23.80;;;3.30;99.90;;;;;;2077843;28;20018;-73
2022/12/04 04:39:34;;;;;;;33.67;24.80;;;3.30;99.90;;;;;;2075432;28;20022;-73
2022/12/04 04:40:45;;;;;;;32.70;24.55;;;3.30;99.90;;;;;;2075393;28;20025;-73
2022/12/04 04:41:53;;;;;;;;;;;3.30;99.90;;;;;;2077744;28;20072;-73
2022/12/04 04:43:06;;;;;;;29.98;23.23;;;3.30;99.90;;;;;;2077580;28;20514;-73
2022/12/04 04:44:26;;;;;;;33.63;24.33;;;3.30;99.90;;;;;;2076450;28;20061;-73
2022/12/04 04:45:38;;;;;;;31.73;23.60;;;3.30;99.90;;;;;;2076067;28;20018;-73
2022/12/04 04:46:45;;;;;;;32.88;23.75;;;3.30;99.90;;;;;;2075974;28;20014;-73
2022/12/04 04:47:48;;;;;;;33.80;24.95;;;3.30;99.90;;;;;;2075877;28;20021;-73
2022/12/04 04:48:53;;;;;;;34.17;24.90;;;3.30;99.90;;;;;;2076897;28;20071;-73
2022/12/04 04:49:57;;;;;;;35.17;25.10;;;3.30;99.90;;;;;;2074435;28;20029;-73
2022/12/04 04:51:00;;;;;;;28.67;22.55;;;3.30;99.90;;;;;;2077084;28;20030;-73
2022/12/04 04:52:01;;;;;;;34.08;24.33;;;3.40;99.90;;;;;;2073419;28;20029;-73
2022/12/04 04:53:14;;;;;;;33.67;24.15;;;3.40;99.90;;;;;;2075134;28;20025;-73
2022/12/04 04:54:16;;;;;;;34.50;24.55;;;3.40;99.90;;;;;;2075116;28;20616;-73
2022/12/04 04:55:18;;;;;;;36.45;24.83;;;3.40;99.90;;;;;;2076387;28;20122;-73
2022/12/04 04:56:20;;;;;;;30.77;23.67;;;3.40;99.90;;;;;;2073916;28;20025;-73
2022/12/04 04:57:34;;;;;;;34.05;24.55;;;3.40;99.90;;;;;;2075221;28;20026;-74
2022/12/04 04:58:35;;;;;;;32.30;23.73;;;3.40;99.90;;;;;;2076199;28;20107;-73
2022/12/04 04:59:35;;;;;;;31.48;23.75;;;3.40;99.90;;;;;;2077305;28;20104;-73
2022/12/04 05:00:37;;;;;;;32.35;24.23;;;3.40;99.90;;;;;;2077461;28;20120;-73
2022/12/04 05:01:38;;;;;;;31.45;23.40;;;3.50;99.90;;;;;;2076384;28;20109;-73
2022/12/04 05:02:39;;;;;;;30.83;23.65;;;3.40;99.90;;;;;;2076825;28;20025;-73
2022/12/04 05:03:40;;;;;;;32.08;24.25;;;3.50;99.90;;;;;;2075572;28;20029;-73
2022/12/04 05:04:41;;;;;;;32.30;23.65;;;3.40;99.90;;;;;;2076461;28;20029;-73
2022/12/04 05:05:41;;;;;;;30.20;22.70;;;3.40;99.90;;;;;;2078891;28;20512;-73
2022/12/04 05:06:42;;;;;;;31.05;23.58;;;3.40;99.90;;;;;;2077485;28;20435;-73
2022/12/04 05:07:42;;;;;;;31.77;23.15;;;3.40;99.90;;;;;;2075124;28;20040;-73
2022/12/04 05:08:43;;;;;;;34.13;25.17;;;3.40;99.90;;;;;;2075992;28;20037;-73
2022/12/04 05:09:43;;;;;;;32.05;24.65;;;3.50;99.90;;;;;;2077166;28;20061;-73
2022/12/04 05:10:44;;;;;;;34.28;23.60;;;3.50;99.90;;;;;;2076483;28;20042;-73
2022/12/04 05:11:44;;;;;;;33.90;25.13;;;3.50;99.90;;;;;;2074782;28;20033;-73
2022/12/04 05:12:45;;;;;;;30.40;23.38;;;3.50;99.90;;;;;;2075337;28;20105;-73
2022/12/04 05:13:45;;;;;;;31.02;23.95;;;3.50;99.90;;;;;;2076385;28;20030;-73
2022/12/04 05:14:47;;;;;;;30.48;23.55;;;3.50;99.90;;;;;;2075894;28;20025;-73
2022/12/04 05:16:03;;;;;;;30.25;23.25;;;3.50;99.90;;;;;;2076197;28;20021;-73
2022/12/04 05:17:05;;;;;;;33.60;24.00;;;3.50;99.90;;;;;;2077682;28;20076;-73
2022/12/04 05:18:05;;;;;;;33.15;25.27;;;3.50;99.90;;;;;;2076613;28;20049;-73
2022/12/04 05:20:25;;;;;;;30.23;23.05;;;3.40;99.90;;;;;;2078334;28;20501;-73
2022/12/04 05:21:25;;;;;;;31.65;24.05;;;3.40;99.90;;;;;;2074935;28;20420;-73
2022/12/04 05:22:32;;;;;;;34.33;24.08;;;3.40;99.90;;;;;;2075152;28;20018;-73
2022/12/04 05:23:33;;;;;;;34.15;24.48;;;3.40;99.90;;;;;;2077926;28;20021;-73
2022/12/04 05:24:33;;;;;;;32.45;24.40;;;3.40;99.90;;;;;;2073524;28;20454;-73
2022/12/04 05:25:34;;;;;;;31.80;23.30;;;3.40;99.90;;;;;;2074780;28;20026;-73
2022/12/04 05:26:34;;;;;;;30.35;23.85;;;3.40;99.90;;;;;;2075720;28;20112;-73
2022/12/04 05:27:35;;;;;;;31.48;23.70;;;3.40;99.90;;;;;;2074472;28;20018;-73
2022/12/04 05:28:36;;;;;;;32.05;22.95;;;3.40;99.90;;;;;;2077593;28;20401;-73
2022/12/04 05:29:36;;;;;;;32.53;24.35;;;3.40;99.90;;;;;;2076677;28;20866;-73
2022/12/04 05:30:37;;;;;;;31.52;23.30;;;3.40;99.90;;;;;;2077343;28;20045;-73
2022/12/04 05:31:37;;;;;;;33.10;23.15;;;3.40;99.90;;;;;;2077645;28;20654;-73
2022/12/04 05:32:38;;;;;;;29.92;23.70;;;3.50;99.90;;;;;;2077138;28;20029;-73
2022/12/04 05:33:39;;;;;;;29.60;21.88;;;3.50;99.90;;;;;;2075385;28;20022;-73
2022/12/04 05:34:39;;;;;;;30.35;22.83;;;3.50;99.90;;;;;;2075054;28;20525;-73
2022/12/04 05:35:40;;;;;;;31.90;23.77;;;3.40;99.90;;;;;;2074689;28;20021;-73
2022/12/04 05:36:40;;;;;;;31.15;22.70;;;3.50;99.90;;;;;;2073782;28;20048;-73
2022/12/04 05:37:41;;;;;;;30.23;22.45;;;3.40;99.90;;;;;;2075406;28;20509;-73
2022/12/04 05:38:42;;;;;;;31.52;22.85;;;3.40;99.90;;;;;;2077019;28;20377;-73
2022/12/04 05:39:43;;;;;;;31.92;22.90;;;3.40;99.90;;;;;;2075716;28;20075;-73
2022/12/04 05:40:43;;;;;;;29.38;22.67;;;3.40;99.90;;;;;;2075519;28;20018;-73
2022/12/04 05:41:44;;;;;;;28.30;22.50;;;3.50;99.90;;;;;;2075204;28;20025;-73
2022/12/04 05:42:44;;;;;;;31.00;23.60;;;3.40;99.90;;;;;;2076748;28;20611;-73
2022/12/04 05:43:45;;;;;;;33.80;23.27;;;3.50;99.90;;;;;;2077172;28;20029;-73
2022/12/04 05:44:47;;;;;;;30.15;22.63;;;3.50;99.90;;;;;;2075890;28;20029;-73
2022/12/04 05:45:48;;;;;;;31.02;22.77;;;3.50;99.90;;;;;;2077242;28;20032;-73
2022/12/04 05:46:48;;;;;;;29.42;23.83;;;3.50;99.90;;;;;;2076725;28;20477;-73
2022/12/04 05:47:49;;;;;;;28.73;22.20;;;3.50;99.90;;;;;;2076139;28;20671;-73
2022/12/04 05:48:49;;;;;;;30.27;23.77;;;3.50;99.90;;;;;;2075956;28;20057;-73
2022/12/04 05:49:51;;;;;;;31.33;22.50;;;3.50;99.90;;;;;;2077045;28;20036;-73
2022/12/04 05:50:51;;;;;;;27.65;21.65;;;3.50;99.90;;;;;;2078337;28;20028;-73
2022/12/04 05:51:52;;;;;;;27.35;21.50;;;3.50;99.90;;;;;;2083256;28;20732;-73
2022/12/04 05:52:52;;;;;;;28.92;21.02;;;3.50;99.90;;;;;;2083673;28;20045;-74
2022/12/04 05:53:53;;;;;;;27.85;21.90;;;3.50;99.90;;;;;;2073967;28;20034;-73
2022/12/04 05:54:53;;;;;;;28.48;21.50;;;3.50;99.90;;;;;;2082938;28;20083;-73
2022/12/04 05:55:59;;;;;;;29.08;21.42;;;3.50;99.90;;;;;;2077038;28;20032;-73